sensor_id;sensor_type;location;lat;lon;timestamp;pressure;altitude;pressure_sealevel;temperature
75822;BMP180;64454;51.984;9.838;2023-03-20T00:00:48;100287.00;;;10.90
75822;BMP180;64454;51.984;9.838;2023-03-20T00:03:16;100284.00;;;10.50
75822;BMP180;64454;51.984;9.838;2023-03-20T00:05:43;100291.00;;;10.80
75822;BMP180;64454;51.984;9.838;2023-03-20T00:08:10;100288.00;;;10.60
75822;BMP180;64454;51.984;9.838;2023-03-20T00:10:41;100295.00;;;10.60
75822;BMP180;64454;51.984;9.838;2023-03-20T00:13:14;100301.00;;;10.70
75822;BMP180;64454;51.984;9.838;2023-03-20T00:15:43;100303.00;;;10.60
75822;BMP180;64454;51.984;9.838;2023-03-20T00:18:16;100301.00;;;10.30
75822;BMP180;64454;51.984;9.838;2023-03-20T00:20:45;100298.00;;;10.50
75822;BMP180;64454;51.984;9.838;2023-03-20T00:23:12;100306.00;;;10.70
75822;BMP180;64454;51.984;9.838;2023-03-20T00:25:42;100300.00;;;10.70
75822;BMP180;64454;51.984;9.838;2023-03-20T00:28:36;100296.00;;;10.90
75822;BMP180;64454;51.984;9.838;2023-03-20T00:31:19;100291.00;;;10.60
75822;BMP180;64454;51.984;9.838;2023-03-20T00:33:47;100288.00;;;10.30
75822;BMP180;64454;51.984;9.838;2023-03-20T00:36:14;100294.00;;;10.60
75822;BMP180;64454;51.984;9.838;2023-03-20T00:38:40;100293.00;;;10.80
75822;BMP180;64454;51.984;9.838;2023-03-20T00:41:22;100296.00;;;10.90
75822;BMP180;64454;51.984;9.838;2023-03-20T00:43:54;100297.00;;;11.00
75822;BMP180;64454;51.984;9.838;2023-03-20T00:46:23;100299.00;;;11.10
75822;BMP180;64454;51.984;9.838;2023-03-20T00:48:51;100294.00;;;11.00
75822;BMP180;64454;51.984;9.838;2023-03-20T00:51:18;100291.00;;;10.70
75822;BMP180;64454;51.984;9.838;2023-03-20T00:53:45;100291.00;;;10.40
75822;BMP180;64454;51.984;9.838;2023-03-20T00:56:31;100292.00;;;10.70
75822;BMP180;64454;51.984;9.838;2023-03-20T00:58:59;100294.00;;;10.70
75822;BMP180;64454;51.984;9.838;2023-03-20T01:01:27;100299.00;;;11.10
75822;BMP180;64454;51.984;9.838;2023-03-20T01:03:54;100303.00;;;11.30
75822;BMP180;64454;51.984;9.838;2023-03-20T01:06:21;100298.00;;;11.40
75822;BMP180;64454;51.984;9.838;2023-03-20T01:08:47;100298.00;;;11.50
75822;BMP180;64454;51.984;9.838;2023-03-20T01:11:20;100294.00;;;11.50
75822;BMP180;64454;51.984;9.838;2023-03-20T01:13:48;100293.00;;;11.40
75822;BMP180;64454;51.984;9.838;2023-03-20T01:16:20;100297.00;;;11.50
75822;BMP180;64454;51.984;9.838;2023-03-20T01:18:48;100300.00;;;11.50
75822;BMP180;64454;51.984;9.838;2023-03-20T01:21:15;100306.00;;;11.50
75822;BMP180;64454;51.984;9.838;2023-03-20T01:23:42;100313.00;;;11.70
75822;BMP180;64454;51.984;9.838;2023-03-20T01:26:28;100307.00;;;11.60
75822;BMP180;64454;51.984;9.838;2023-03-20T01:28:56;100313.00;;;11.70
75822;BMP180;64454;51.984;9.838;2023-03-20T01:31:23;100311.00;;;11.60
75822;BMP180;64454;51.984;9.838;2023-03-20T01:33:50;100312.00;;;11.40
75822;BMP180;64454;51.984;9.838;2023-03-20T01:36:21;100300.00;;;11.40
75822;BMP180;64454;51.984;9.838;2023-03-20T01:38:53;100301.00;;;11.30
75822;BMP180;64454;51.984;9.838;2023-03-20T01:41:24;100303.00;;;11.30
75822;BMP180;64454;51.984;9.838;2023-03-20T01:43:52;100307.00;;;11.40
75822;BMP180;64454;51.984;9.838;2023-03-20T01:46:23;100306.00;;;11.60
75822;BMP180;64454;51.984;9.838;2023-03-20T01:49:06;100310.00;;;11.70
75822;BMP180;64454;51.984;9.838;2023-03-20T01:51:33;100311.00;;;11.40
75822;BMP180;64454;51.984;9.838;2023-03-20T01:54:05;100314.00;;;11.40
75822;BMP180;64454;51.984;9.838;2023-03-20T01:56:39;100298.00;;;11.30
75822;BMP180;64454;51.984;9.838;2023-03-20T01:59:13;100301.00;;;11.30
75822;BMP180;64454;51.984;9.838;2023-03-20T02:01:44;100308.00;;;11.50
75822;BMP180;64454;51.984;9.838;2023-03-20T02:04:13;100315.00;;;11.40
75822;BMP180;64454;51.984;9.838;2023-03-20T02:06:42;100318.00;;;11.40
75822;BMP180;64454;51.984;9.838;2023-03-20T02:09:11;100314.00;;;11.60
75822;BMP180;64454;51.984;9.838;2023-03-20T02:11:40;100311.00;;;11.50
75822;BMP180;64454;51.984;9.838;2023-03-20T02:14:08;100318.00;;;11.60
75822;BMP180;64454;51.984;9.838;2023-03-20T02:16:39;100317.00;;;11.50
75822;BMP180;64454;51.984;9.838;2023-03-20T02:19:18;100321.00;;;11.60
75822;BMP180;64454;51.984;9.838;2023-03-20T02:22:24;100332.00;;;11.50
75822;BMP180;64454;51.984;9.838;2023-03-20T02:25:31;100331.00;;;11.60
75822;BMP180;64454;51.984;9.838;2023-03-20T02:31:38;100346.00;;;11.50
75822;BMP180;64454;51.984;9.838;2023-03-20T02:34:40;100353.00;;;11.50
75822;BMP180;64454;51.984;9.838;2023-03-20T02:37:50;100360.00;;;11.50
75822;BMP180;64454;51.984;9.838;2023-03-20T02:40:32;100359.00;;;11.20
75822;BMP180;64454;51.984;9.838;2023-03-20T02:43:13;100361.00;;;11.30
75822;BMP180;64454;51.984;9.838;2023-03-20T02:45:52;100360.00;;;11.20
75822;BMP180;64454;51.984;9.838;2023-03-20T02:48:32;100367.00;;;11.10
75822;BMP180;64454;51.984;9.838;2023-03-20T02:51:14;100366.00;;;11.10
75822;BMP180;64454;51.984;9.838;2023-03-20T02:53:51;100368.00;;;11.10
75822;BMP180;64454;51.984;9.838;2023-03-20T02:56:28;100365.00;;;11.20
75822;BMP180;64454;51.984;9.838;2023-03-20T02:59:08;100380.00;;;11.00
75822;BMP180;64454;51.984;9.838;2023-03-20T03:01:42;100376.00;;;10.90
75822;BMP180;64454;51.984;9.838;2023-03-20T03:04:18;100377.00;;;10.80
75822;BMP180;64454;51.984;9.838;2023-03-20T03:06:51;100380.00;;;10.90
75822;BMP180;64454;51.984;9.838;2023-03-20T03:09:25;100378.00;;;11.00
75822;BMP180;64454;51.984;9.838;2023-03-20T03:12:00;100377.00;;;11.00
75822;BMP180;64454;51.984;9.838;2023-03-20T03:14:36;100373.00;;;10.90
75822;BMP180;64454;51.984;9.838;2023-03-20T03:17:06;100369.00;;;11.00
75822;BMP180;64454;51.984;9.838;2023-03-20T03:19:36;100371.00;;;10.90
75822;BMP180;64454;51.984;9.838;2023-03-20T03:22:06;100373.00;;;10.80
75822;BMP180;64454;51.984;9.838;2023-03-20T03:24:37;100372.00;;;10.70
75822;BMP180;64454;51.984;9.838;2023-03-20T03:27:16;100369.00;;;10.80
75822;BMP180;64454;51.984;9.838;2023-03-20T03:29:50;100367.00;;;10.60
75822;BMP180;64454;51.984;9.838;2023-03-20T03:32:25;100367.00;;;10.60
75822;BMP180;64454;51.984;9.838;2023-03-20T03:34:54;100365.00;;;10.30
75822;BMP180;64454;51.984;9.838;2023-03-20T03:37:35;100363.00;;;10.40
75822;BMP180;64454;51.984;9.838;2023-03-20T03:40:15;100361.00;;;10.30
75822;BMP180;64454;51.984;9.838;2023-03-20T03:42:53;100366.00;;;10.10
75822;BMP180;64454;51.984;9.838;2023-03-20T03:45:29;100365.00;;;10.30
75822;BMP180;64454;51.984;9.838;2023-03-20T03:48:02;100369.00;;;10.20
75822;BMP180;64454;51.984;9.838;2023-03-20T03:50:36;100368.00;;;10.30
75822;BMP180;64454;51.984;9.838;2023-03-20T03:53:09;100368.00;;;10.30
75822;BMP180;64454;51.984;9.838;2023-03-20T03:55:42;100368.00;;;10.30
75822;BMP180;64454;51.984;9.838;2023-03-20T03:58:16;100371.00;;;10.20
75822;BMP180;64454;51.984;9.838;2023-03-20T04:00:48;100374.00;;;10.20
75822;BMP180;64454;51.984;9.838;2023-03-20T04:03:19;100375.00;;;10.20
75822;BMP180;64454;51.984;9.838;2023-03-20T04:05:50;100380.00;;;10.10
75822;BMP180;64454;51.984;9.838;2023-03-20T04:08:19;100378.00;;;9.90
75822;BMP180;64454;51.984;9.838;2023-03-20T04:10:47;100375.00;;;10.00
75822;BMP180;64454;51.984;9.838;2023-03-20T04:13:14;100376.00;;;9.90
75822;BMP180;64454;51.984;9.838;2023-03-20T04:15:41;100380.00;;;10.10
75822;BMP180;64454;51.984;9.838;2023-03-20T04:18:13;100376.00;;;10.10
75822;BMP180;64454;51.984;9.838;2023-03-20T04:20:41;100373.00;;;10.40
75822;BMP180;64454;51.984;9.838;2023-03-20T04:23:07;100373.00;;;10.30
75822;BMP180;64454;51.984;9.838;2023-03-20T04:25:34;100371.00;;;10.30
75822;BMP180;64454;51.984;9.838;2023-03-20T04:28:03;100370.00;;;10.50
75822;BMP180;64454;51.984;9.838;2023-03-20T04:30:30;100366.00;;;10.60
75822;BMP180;64454;51.984;9.838;2023-03-20T04:32:57;100377.00;;;10.50
75822;BMP180;64454;51.984;9.838;2023-03-20T04:35:24;100378.00;;;10.50
75822;BMP180;64454;51.984;9.838;2023-03-20T04:37:51;100376.00;;;10.40
75822;BMP180;64454;51.984;9.838;2023-03-20T04:40:18;100369.00;;;10.40
75822;BMP180;64454;51.984;9.838;2023-03-20T04:42:44;100370.00;;;10.40
75822;BMP180;64454;51.984;9.838;2023-03-20T04:45:12;100359.00;;;10.30
75822;BMP180;64454;51.984;9.838;2023-03-20T04:47:39;100359.00;;;10.30
75822;BMP180;64454;51.984;9.838;2023-03-20T04:50:07;100352.00;;;10.30
75822;BMP180;64454;51.984;9.838;2023-03-20T04:52:34;100356.00;;;10.10
75822;BMP180;64454;51.984;9.838;2023-03-20T04:55:01;100353.00;;;10.20
75822;BMP180;64454;51.984;9.838;2023-03-20T04:57:28;100354.00;;;10.30
75822;BMP180;64454;51.984;9.838;2023-03-20T04:59:56;100352.00;;;10.40
75822;BMP180;64454;51.984;9.838;2023-03-20T05:02:24;100353.00;;;10.30
75822;BMP180;64454;51.984;9.838;2023-03-20T05:04:51;100348.00;;;10.10
75822;BMP180;64454;51.984;9.838;2023-03-20T05:07:18;100350.00;;;10.20
75822;BMP180;64454;51.984;9.838;2023-03-20T05:09:46;100349.00;;;10.20
75822;BMP180;64454;51.984;9.838;2023-03-20T05:12:12;100346.00;;;10.20
75822;BMP180;64454;51.984;9.838;2023-03-20T05:14:39;100343.00;;;10.30
75822;BMP180;64454;51.984;9.838;2023-03-20T05:17:06;100341.00;;;10.40
75822;BMP180;64454;51.984;9.838;2023-03-20T05:19:34;100326.00;;;10.30
75822;BMP180;64454;51.984;9.838;2023-03-20T05:22:01;100335.00;;;10.40
75822;BMP180;64454;51.984;9.838;2023-03-20T05:24:28;100335.00;;;10.30
75822;BMP180;64454;51.984;9.838;2023-03-20T05:26:56;100342.00;;;10.30
75822;BMP180;64454;51.984;9.838;2023-03-20T05:29:23;100348.00;;;10.30
75822;BMP180;64454;51.984;9.838;2023-03-20T05:31:50;100349.00;;;10.20
75822;BMP180;64454;51.984;9.838;2023-03-20T05:34:18;100342.00;;;10.20
75822;BMP180;64454;51.984;9.838;2023-03-20T05:36:47;100346.00;;;10.20
75822;BMP180;64454;51.984;9.838;2023-03-20T05:39:15;100345.00;;;10.30
75822;BMP180;64454;51.984;9.838;2023-03-20T05:41:42;100354.00;;;10.10
75822;BMP180;64454;51.984;9.838;2023-03-20T05:44:09;100355.00;;;10.20
75822;BMP180;64454;51.984;9.838;2023-03-20T05:46:36;100349.00;;;10.00
75822;BMP180;64454;51.984;9.838;2023-03-20T05:49:02;100346.00;;;10.00
75822;BMP180;64454;51.984;9.838;2023-03-20T05:51:29;100338.00;;;10.00
75822;BMP180;64454;51.984;9.838;2023-03-20T05:53:57;100346.00;;;10.00
75822;BMP180;64454;51.984;9.838;2023-03-20T05:56:24;100345.00;;;10.20
75822;BMP180;64454;51.984;9.838;2023-03-20T05:58:51;100343.00;;;10.30
75822;BMP180;64454;51.984;9.838;2023-03-20T06:01:18;100346.00;;;10.30
75822;BMP180;64454;51.984;9.838;2023-03-20T06:03:46;100356.00;;;10.40
75822;BMP180;64454;51.984;9.838;2023-03-20T06:06:13;100355.00;;;10.20
75822;BMP180;64454;51.984;9.838;2023-03-20T06:08:41;100359.00;;;10.30
75822;BMP180;64454;51.984;9.838;2023-03-20T06:11:09;100359.00;;;10.40
75822;BMP180;64454;51.984;9.838;2023-03-20T06:13:36;100363.00;;;10.40
75822;BMP180;64454;51.984;9.838;2023-03-20T06:16:04;100364.00;;;10.50
75822;BMP180;64454;51.984;9.838;2023-03-20T06:18:31;100351.00;;;10.60
75822;BMP180;64454;51.984;9.838;2023-03-20T06:20:58;100361.00;;;10.70
75822;BMP180;64454;51.984;9.838;2023-03-20T06:23:26;100364.00;;;10.70
75822;BMP180;64454;51.984;9.838;2023-03-20T06:25:53;100358.00;;;10.70
75822;BMP180;64454;51.984;9.838;2023-03-20T06:28:21;100357.00;;;10.60
75822;BMP180;64454;51.984;9.838;2023-03-20T06:30:50;100357.00;;;10.60
75822;BMP180;64454;51.984;9.838;2023-03-20T06:33:17;100354.00;;;10.60
75822;BMP180;64454;51.984;9.838;2023-03-20T06:35:44;100361.00;;;10.70
75822;BMP180;64454;51.984;9.838;2023-03-20T06:38:11;100353.00;;;10.50
75822;BMP180;64454;51.984;9.838;2023-03-20T06:40:38;100365.00;;;10.60
75822;BMP180;64454;51.984;9.838;2023-03-20T06:43:06;100362.00;;;10.80
75822;BMP180;64454;51.984;9.838;2023-03-20T06:45:34;100367.00;;;10.90
75822;BMP180;64454;51.984;9.838;2023-03-20T06:48:01;100363.00;;;10.80
75822;BMP180;64454;51.984;9.838;2023-03-20T06:50:31;100370.00;;;10.90
75822;BMP180;64454;51.984;9.838;2023-03-20T06:52:57;100374.00;;;10.80
75822;BMP180;64454;51.984;9.838;2023-03-20T06:55:24;100387.00;;;11.00
75822;BMP180;64454;51.984;9.838;2023-03-20T06:57:51;100384.00;;;10.90
75822;BMP180;64454;51.984;9.838;2023-03-20T07:00:18;100391.00;;;10.70
75822;BMP180;64454;51.984;9.838;2023-03-20T07:02:47;100395.00;;;10.80
75822;BMP180;64454;51.984;9.838;2023-03-20T07:05:15;100388.00;;;10.90
75822;BMP180;64454;51.984;9.838;2023-03-20T07:07:42;100399.00;;;11.00
75822;BMP180;64454;51.984;9.838;2023-03-20T07:10:10;100397.00;;;10.90
75822;BMP180;64454;51.984;9.838;2023-03-20T07:12:37;100404.00;;;10.70
75822;BMP180;64454;51.984;9.838;2023-03-20T07:15:05;100400.00;;;10.90
75822;BMP180;64454;51.984;9.838;2023-03-20T07:17:32;100401.00;;;10.90
75822;BMP180;64454;51.984;9.838;2023-03-20T07:20:00;100402.00;;;10.90
75822;BMP180;64454;51.984;9.838;2023-03-20T07:22:29;100407.00;;;11.00
75822;BMP180;64454;51.984;9.838;2023-03-20T07:24:56;100399.00;;;10.90
75822;BMP180;64454;51.984;9.838;2023-03-20T07:27:23;100405.00;;;10.70
75822;BMP180;64454;51.984;9.838;2023-03-20T07:29:50;100408.00;;;10.80
75822;BMP180;64454;51.984;9.838;2023-03-20T07:32:17;100418.00;;;10.80
75822;BMP180;64454;51.984;9.838;2023-03-20T07:34:45;100413.00;;;10.90
75822;BMP180;64454;51.984;9.838;2023-03-20T07:37:15;100414.00;;;10.70
75822;BMP180;64454;51.984;9.838;2023-03-20T07:39:42;100418.00;;;10.80
75822;BMP180;64454;51.984;9.838;2023-03-20T07:42:09;100422.00;;;10.80
75822;BMP180;64454;51.984;9.838;2023-03-20T07:44:36;100427.00;;;10.90
75822;BMP180;64454;51.984;9.838;2023-03-20T07:47:03;100431.00;;;10.80
75822;BMP180;64454;51.984;9.838;2023-03-20T07:49:30;100422.00;;;11.00
75822;BMP180;64454;51.984;9.838;2023-03-20T07:51:57;100423.00;;;10.90
75822;BMP180;64454;51.984;9.838;2023-03-20T07:54:26;100431.00;;;10.60
75822;BMP180;64454;51.984;9.838;2023-03-20T07:56:52;100434.00;;;10.70
75822;BMP180;64454;51.984;9.838;2023-03-20T07:59:20;100435.00;;;11.00
75822;BMP180;64454;51.984;9.838;2023-03-20T08:01:47;100423.00;;;10.90
75822;BMP180;64454;51.984;9.838;2023-03-20T08:04:15;100424.00;;;11.10
75822;BMP180;64454;51.984;9.838;2023-03-20T08:06:44;100422.00;;;11.00
75822;BMP180;64454;51.984;9.838;2023-03-20T08:09:11;100424.00;;;11.10
75822;BMP180;64454;51.984;9.838;2023-03-20T08:11:39;100427.00;;;11.20
75822;BMP180;64454;51.984;9.838;2023-03-20T08:14:06;100425.00;;;11.10
75822;BMP180;64454;51.984;9.838;2023-03-20T08:16:33;100434.00;;;10.80
75822;BMP180;64454;51.984;9.838;2023-03-20T08:19:00;100429.00;;;10.70
75822;BMP180;64454;51.984;9.838;2023-03-20T08:21:28;100427.00;;;10.80
75822;BMP180;64454;51.984;9.838;2023-03-20T08:23:55;100422.00;;;10.90
75822;BMP180;64454;51.984;9.838;2023-03-20T08:26:23;100416.00;;;10.80
75822;BMP180;64454;51.984;9.838;2023-03-20T08:28:51;100422.00;;;10.70
75822;BMP180;64454;51.984;9.838;2023-03-20T08:31:18;100417.00;;;11.00
75822;BMP180;64454;51.984;9.838;2023-03-20T08:33:45;100422.00;;;11.30
75822;BMP180;64454;51.984;9.838;2023-03-20T08:36:13;100421.00;;;11.30
75822;BMP180;64454;51.984;9.838;2023-03-20T08:38:40;100425.00;;;11.40
75822;BMP180;64454;51.984;9.838;2023-03-20T08:41:07;100418.00;;;11.00
75822;BMP180;64454;51.984;9.838;2023-03-20T08:43:34;100419.00;;;11.50
75822;BMP180;64454;51.984;9.838;2023-03-20T08:46:03;100429.00;;;11.50
75822;BMP180;64454;51.984;9.838;2023-03-20T08:48:31;100430.00;;;11.60
75822;BMP180;64454;51.984;9.838;2023-03-20T08:50:57;100432.00;;;11.60
75822;BMP180;64454;51.984;9.838;2023-03-20T08:53:24;100435.00;;;11.50
75822;BMP180;64454;51.984;9.838;2023-03-20T08:55:53;100442.00;;;11.20
75822;BMP180;64454;51.984;9.838;2023-03-20T08:58:21;100439.00;;;11.40
75822;BMP180;64454;51.984;9.838;2023-03-20T09:00:48;100429.00;;;11.50
75822;BMP180;64454;51.984;9.838;2023-03-20T09:03:19;100438.00;;;11.40
75822;BMP180;64454;51.984;9.838;2023-03-20T09:05:48;100437.00;;;11.60
75822;BMP180;64454;51.984;9.838;2023-03-20T09:08:17;100435.00;;;11.40
75822;BMP180;64454;51.984;9.838;2023-03-20T09:10:46;100437.00;;;11.60
75822;BMP180;64454;51.984;9.838;2023-03-20T09:13:13;100451.00;;;11.40
75822;BMP180;64454;51.984;9.838;2023-03-20T09:15:40;100445.00;;;11.50
75822;BMP180;64454;51.984;9.838;2023-03-20T09:18:07;100457.00;;;11.60
75822;BMP180;64454;51.984;9.838;2023-03-20T09:20:35;100452.00;;;11.60
75822;BMP180;64454;51.984;9.838;2023-03-20T09:23:02;100445.00;;;11.60
75822;BMP180;64454;51.984;9.838;2023-03-20T09:25:29;100455.00;;;11.80
75822;BMP180;64454;51.984;9.838;2023-03-20T09:27:55;100454.00;;;11.70
75822;BMP180;64454;51.984;9.838;2023-03-20T09:30:23;100448.00;;;11.50
75822;BMP180;64454;51.984;9.838;2023-03-20T09:32:50;100461.00;;;11.30
75822;BMP180;64454;51.984;9.838;2023-03-20T09:35:18;100449.00;;;11.20
75822;BMP180;64454;51.984;9.838;2023-03-20T09:37:46;100458.00;;;11.00
75822;BMP180;64454;51.984;9.838;2023-03-20T09:40:25;100452.00;;;11.50
75822;BMP180;64454;51.984;9.838;2023-03-20T09:43:01;100453.00;;;11.70
75822;BMP180;64454;51.984;9.838;2023-03-20T09:45:44;100450.00;;;11.90
75822;BMP180;64454;51.984;9.838;2023-03-20T09:48:24;100452.00;;;11.60
75822;BMP180;64454;51.984;9.838;2023-03-20T09:51:01;100446.00;;;11.70
75822;BMP180;64454;51.984;9.838;2023-03-20T09:53:36;100457.00;;;11.80
75822;BMP180;64454;51.984;9.838;2023-03-20T09:56:13;100447.00;;;12.10
75822;BMP180;64454;51.984;9.838;2023-03-20T09:58:42;100464.00;;;12.10
75822;BMP180;64454;51.984;9.838;2023-03-20T10:01:13;100460.00;;;11.90
75822;BMP180;64454;51.984;9.838;2023-03-20T10:03:47;100453.00;;;11.90
75822;BMP180;64454;51.984;9.838;2023-03-20T10:06:16;100459.00;;;11.80
75822;BMP180;64454;51.984;9.838;2023-03-20T10:08:45;100451.00;;;11.70
75822;BMP180;64454;51.984;9.838;2023-03-20T10:11:34;100456.00;;;12.00
75822;BMP180;64454;51.984;9.838;2023-03-20T10:14:22;100451.00;;;12.20
75822;BMP180;64454;51.984;9.838;2023-03-20T10:17:03;100448.00;;;12.70
75822;BMP180;64454;51.984;9.838;2023-03-20T10:19:42;100454.00;;;12.80
75822;BMP180;64454;51.984;9.838;2023-03-20T10:22:20;100456.00;;;12.90
75822;BMP180;64454;51.984;9.838;2023-03-20T10:24:55;100452.00;;;13.30
75822;BMP180;64454;51.984;9.838;2023-03-20T10:27:27;100447.00;;;13.80
75822;BMP180;64454;51.984;9.838;2023-03-20T10:30:18;100451.00;;;13.70
75822;BMP180;64454;51.984;9.838;2023-03-20T10:32:59;100460.00;;;13.60
75822;BMP180;64454;51.984;9.838;2023-03-20T10:35:38;100461.00;;;13.90
75822;BMP180;64454;51.984;9.838;2023-03-20T10:38:22;100466.00;;;13.90
75822;BMP180;64454;51.984;9.838;2023-03-20T10:40:53;100468.00;;;13.80
75822;BMP180;64454;51.984;9.838;2023-03-20T10:43:27;100473.00;;;13.10
75822;BMP180;64454;51.984;9.838;2023-03-20T10:46:00;100467.00;;;13.10
75822;BMP180;64454;51.984;9.838;2023-03-20T10:48:32;100471.00;;;13.00
75822;BMP180;64454;51.984;9.838;2023-03-20T10:51:02;100460.00;;;12.90
75822;BMP180;64454;51.984;9.838;2023-03-20T10:53:36;100460.00;;;13.20
75822;BMP180;64454;51.984;9.838;2023-03-20T10:56:14;100449.00;;;13.20
75822;BMP180;64454;51.984;9.838;2023-03-20T10:58:46;100453.00;;;13.60
75822;BMP180;64454;51.984;9.838;2023-03-20T11:01:13;100458.00;;;13.80
75822;BMP180;64454;51.984;9.838;2023-03-20T11:03:40;100454.00;;;14.00
75822;BMP180;64454;51.984;9.838;2023-03-20T11:06:17;100455.00;;;13.80
75822;BMP180;64454;51.984;9.838;2023-03-20T11:08:49;100462.00;;;13.80
75822;BMP180;64454;51.984;9.838;2023-03-20T11:11:24;100459.00;;;13.40
75822;BMP180;64454;51.984;9.838;2023-03-20T11:13:51;100453.00;;;13.40
75822;BMP180;64454;51.984;9.838;2023-03-20T11:16:22;100457.00;;;13.20
75822;BMP180;64454;51.984;9.838;2023-03-20T11:18:52;100452.00;;;13.10
75822;BMP180;64454;51.984;9.838;2023-03-20T11:21:24;100449.00;;;13.00
75822;BMP180;64454;51.984;9.838;2023-03-20T11:23:52;100448.00;;;12.90
75822;BMP180;64454;51.984;9.838;2023-03-20T11:26:34;100440.00;;;12.60
75822;BMP180;64454;51.984;9.838;2023-03-20T11:29:04;100438.00;;;12.80
75822;BMP180;64454;51.984;9.838;2023-03-20T11:31:35;100436.00;;;12.70
75822;BMP180;64454;51.984;9.838;2023-03-20T11:34:21;100424.00;;;12.60
75822;BMP180;64454;51.984;9.838;2023-03-20T11:36:55;100412.00;;;12.60
75822;BMP180;64454;51.984;9.838;2023-03-20T11:39:25;100421.00;;;12.80
75822;BMP180;64454;51.984;9.838;2023-03-20T11:41:57;100421.00;;;12.90
75822;BMP180;64454;51.984;9.838;2023-03-20T11:44:26;100416.00;;;13.10
75822;BMP180;64454;51.984;9.838;2023-03-20T11:46:59;100416.00;;;13.00
75822;BMP180;64454;51.984;9.838;2023-03-20T11:49:29;100418.00;;;13.30
75822;BMP180;64454;51.984;9.838;2023-03-20T11:52:02;100407.00;;;13.50
75822;BMP180;64454;51.984;9.838;2023-03-20T11:54:29;100406.00;;;13.60
75822;BMP180;64454;51.984;9.838;2023-03-20T11:56:59;100406.00;;;13.60
75822;BMP180;64454;51.984;9.838;2023-03-20T11:59:30;100392.00;;;13.80
75822;BMP180;64454;51.984;9.838;2023-03-20T12:01:59;100396.00;;;13.80
75822;BMP180;64454;51.984;9.838;2023-03-20T12:04:29;100384.00;;;14.70
75822;BMP180;64454;51.984;9.838;2023-03-20T12:07:05;100394.00;;;15.20
75822;BMP180;64454;51.984;9.838;2023-03-20T12:09:42;100389.00;;;14.10
75822;BMP180;64454;51.984;9.838;2023-03-20T12:12:23;100393.00;;;13.90
75822;BMP180;64454;51.984;9.838;2023-03-20T12:15:02;100371.00;;;15.40
75822;BMP180;64454;51.984;9.838;2023-03-20T12:17:41;100370.00;;;16.50
75822;BMP180;64454;51.984;9.838;2023-03-20T12:20:26;100369.00;;;16.10
75822;BMP180;64454;51.984;9.838;2023-03-20T12:23:02;100372.00;;;17.40
75822;BMP180;64454;51.984;9.838;2023-03-20T12:25:41;100373.00;;;17.00
75822;BMP180;64454;51.984;9.838;2023-03-20T12:28:19;100369.00;;;17.80
75822;BMP180;64454;51.984;9.838;2023-03-20T12:31:04;100359.00;;;16.60
75822;BMP180;64454;51.984;9.838;2023-03-20T12:33:43;100362.00;;;16.70
75822;BMP180;64454;51.984;9.838;2023-03-20T12:36:15;100357.00;;;17.70
75822;BMP180;64454;51.984;9.838;2023-03-20T12:38:43;100360.00;;;17.50
75822;BMP180;64454;51.984;9.838;2023-03-20T12:41:14;100362.00;;;16.90
75822;BMP180;64454;51.984;9.838;2023-03-20T12:44:15;100367.00;;;15.20
75822;BMP180;64454;51.984;9.838;2023-03-20T12:46:50;100377.00;;;15.50
75822;BMP180;64454;51.984;9.838;2023-03-20T12:49:35;100374.00;;;14.90
75822;BMP180;64454;51.984;9.838;2023-03-20T12:52:14;100367.00;;;14.40
75822;BMP180;64454;51.984;9.838;2023-03-20T12:55:09;100363.00;;;14.30
75822;BMP180;64454;51.984;9.838;2023-03-20T12:57:52;100357.00;;;14.30
75822;BMP180;64454;51.984;9.838;2023-03-20T13:00:29;100364.00;;;15.30
75822;BMP180;64454;51.984;9.838;2023-03-20T13:03:15;100362.00;;;16.00
75822;BMP180;64454;51.984;9.838;2023-03-20T13:05:50;100356.00;;;16.00
75822;BMP180;64454;51.984;9.838;2023-03-20T13:08:46;100354.00;;;16.40
75822;BMP180;64454;51.984;9.838;2023-03-20T13:11:28;100348.00;;;16.10
75822;BMP180;64454;51.984;9.838;2023-03-20T13:14:01;100348.00;;;16.00
75822;BMP180;64454;51.984;9.838;2023-03-20T13:16:44;100351.00;;;16.10
75822;BMP180;64454;51.984;9.838;2023-03-20T13:19:23;100353.00;;;16.20
75822;BMP180;64454;51.984;9.838;2023-03-20T13:21:57;100347.00;;;16.00
75822;BMP180;64454;51.984;9.838;2023-03-20T13:24:35;100356.00;;;15.90
75822;BMP180;64454;51.984;9.838;2023-03-20T13:27:26;100344.00;;;15.30
75822;BMP180;64454;51.984;9.838;2023-03-20T13:30:02;100341.00;;;14.80
75822;BMP180;64454;51.984;9.838;2023-03-20T13:32:47;100346.00;;;16.10
75822;BMP180;64454;51.984;9.838;2023-03-20T13:35:42;100319.00;;;16.50
75822;BMP180;64454;51.984;9.838;2023-03-20T13:38:17;100324.00;;;18.70
75822;BMP180;64454;51.984;9.838;2023-03-20T13:40:49;100311.00;;;19.70
75822;BMP180;64454;51.984;9.838;2023-03-20T13:43:24;100317.00;;;19.80
75822;BMP180;64454;51.984;9.838;2023-03-20T13:46:01;100320.00;;;19.60
75822;BMP180;64454;51.984;9.838;2023-03-20T13:48:36;100320.00;;;21.00
75822;BMP180;64454;51.984;9.838;2023-03-20T13:51:15;100310.00;;;20.40
75822;BMP180;64454;51.984;9.838;2023-03-20T13:53:59;100307.00;;;20.90
75822;BMP180;64454;51.984;9.838;2023-03-20T13:56:39;100325.00;;;20.60
75822;BMP180;64454;51.984;9.838;2023-03-20T13:59:52;100325.00;;;18.80
75822;BMP180;64454;51.984;9.838;2023-03-20T14:02:32;100323.00;;;17.40
75822;BMP180;64454;51.984;9.838;2023-03-20T14:05:10;100334.00;;;16.80
75822;BMP180;64454;51.984;9.838;2023-03-20T14:07:41;100338.00;;;16.40
75822;BMP180;64454;51.984;9.838;2023-03-20T14:10:37;100323.00;;;15.40
75822;BMP180;64454;51.984;9.838;2023-03-20T14:13:12;100324.00;;;15.00
75822;BMP180;64454;51.984;9.838;2023-03-20T14:15:53;100324.00;;;15.30
75822;BMP180;64454;51.984;9.838;2023-03-20T14:18:22;100320.00;;;14.70
75822;BMP180;64454;51.984;9.838;2023-03-20T14:20:57;100323.00;;;14.80
75822;BMP180;64454;51.984;9.838;2023-03-20T14:23:34;100326.00;;;14.70
75822;BMP180;64454;51.984;9.838;2023-03-20T14:26:07;100332.00;;;13.90
75822;BMP180;64454;51.984;9.838;2023-03-20T14:28:54;100321.00;;;13.90